createdAt,value
2018-12-14T00:26:17.945Z,19.60
2018-12-14T00:39:25.343Z,19.60
2018-12-14T00:52:32.630Z,19.60
2018-12-14T01:19:37.645Z,19.60
2018-12-14T01:33:00.532Z,19.60
2018-12-14T01:46:23.217Z,19.60
2018-12-14T01:59:46.048Z,19.60
2018-12-14T02:13:08.856Z,19.60
2018-12-14T02:26:31.670Z,19.60
2018-12-14T02:39:54.480Z,19.60
2018-12-14T02:53:17.397Z,19.60
2018-12-14T03:19:41.775Z,19.60
2018-12-14T03:32:48.945Z,19.60
2018-12-14T03:45:56.085Z,19.60
2018-12-14T03:59:03.393Z,19.60
2018-12-14T04:12:10.530Z,19.60
2018-12-14T04:25:17.691Z,19.60
2018-12-14T04:38:41.546Z,19.60
2018-12-14T04:52:04.344Z,19.60
2018-12-14T05:18:28.818Z,19.60
2018-12-14T05:31:36.111Z,19.60
2018-12-14T05:44:43.265Z,19.60
2018-12-14T05:57:50.458Z,19.60
2018-12-14T06:37:07.401Z,19.60
2018-12-14T07:03:20.300Z,19.70
2018-12-14T07:16:27.507Z,19.70
2018-12-14T07:29:34.684Z,19.50
2018-12-14T07:42:41.924Z,18.60
2018-12-14T07:55:49.111Z,18.90
2018-12-14T08:08:56.253Z,19.60
2018-12-14T08:22:20.029Z,19.90
2018-12-14T08:35:42.922Z,20.00
2018-12-14T08:49:05.757Z,20.00
2018-12-14T09:02:28.435Z,20.00
2018-12-14T09:15:51.310Z,20.00
2018-12-14T09:29:14.228Z,20.00
2018-12-14T09:42:36.928Z,20.00
2018-12-14T09:55:59.753Z,20.00
2018-12-14T10:09:22.649Z,20.00
2018-12-14T10:22:45.396Z,20.00
2018-12-14T10:36:08.316Z,20.00
2018-12-14T10:49:31.158Z,20.00
2018-12-14T11:02:53.820Z,19.90
2018-12-14T11:16:16.887Z,20.00
2018-12-14T11:29:39.457Z,20.10
2018-12-14T11:43:02.257Z,20.10
2018-12-14T11:56:25.049Z,20.10
2018-12-14T12:09:47.977Z,20.00
2018-12-14T12:23:10.713Z,20.00
2018-12-14T12:36:33.523Z,20.10
2018-12-14T12:49:56.343Z,20.00
2018-12-14T13:03:19.895Z,20.10
2018-12-14T13:16:41.998Z,20.00
2018-12-14T13:30:04.797Z,20.00
2018-12-14T13:43:27.603Z,20.00
2018-12-14T13:56:50.456Z,20.00
2018-12-14T14:10:13.251Z,20.00
2018-12-14T14:23:36.142Z,20.00
2018-12-14T14:36:59.055Z,20.00
2018-12-14T14:50:21.714Z,20.00
2018-12-14T15:03:44.508Z,20.00
2018-12-14T15:17:07.421Z,20.00
2018-12-14T15:30:30.220Z,20.00
2018-12-14T15:43:53.049Z,20.00
2018-12-14T15:57:15.765Z,19.90
2018-12-14T16:10:38.702Z,19.90
2018-12-14T16:24:01.420Z,19.90
2018-12-14T16:37:24.331Z,19.90
2018-12-14T16:50:47.052Z,19.90
2018-12-14T17:04:09.974Z,19.90
2018-12-14T17:17:32.675Z,19.90
2018-12-14T17:30:55.558Z,20.00
2018-12-14T17:44:18.415Z,19.90
2018-12-14T17:57:41.120Z,19.90
2018-12-14T18:11:03.961Z,19.90
2018-12-14T18:24:26.860Z,19.90
2018-12-14T18:37:49.655Z,20.00
2018-12-14T18:51:12.380Z,18.90
2018-12-14T19:04:35.192Z,19.40
2018-12-14T19:17:58.010Z,19.50
2018-12-14T19:31:20.831Z,19.50
2018-12-14T19:44:43.649Z,19.60
2018-12-14T19:58:06.449Z,19.60
2018-12-14T20:11:30.591Z,19.60
2018-12-14T20:24:52.070Z,19.70
2018-12-14T20:38:14.986Z,19.70
2018-12-14T20:51:38.469Z,19.70
2018-12-14T21:05:00.556Z,19.70
2018-12-14T21:31:25.543Z,19.70
2018-12-14T21:44:32.889Z,19.70
2018-12-14T21:57:40.047Z,19.70
2018-12-14T22:10:47.871Z,19.70
2018-12-14T22:24:12.000Z,19.60
2018-12-14T22:37:34.821Z,19.70
2018-12-14T22:50:57.536Z,19.70
2018-12-14T23:04:20.350Z,19.60
2018-12-14T23:17:43.184Z,19.70
2018-12-14T23:31:05.953Z,19.70
2018-12-14T23:44:29.115Z,19.60
2018-12-14T23:57:51.700Z,19.70
